createdAt,value
2018-04-02T00:02:03.224Z,51.47
2018-04-02T00:04:32.097Z,48.57
2018-04-02T00:07:00.990Z,43.47
2018-04-02T00:09:29.897Z,46.93
2018-04-02T00:11:58.020Z,45.60
2018-04-02T00:14:26.147Z,48.50
2018-04-02T00:16:54.406Z,45.17
2018-04-02T00:19:23.319Z,47.27
2018-04-02T00:21:51.434Z,46.33
2018-04-02T00:24:19.605Z,46.13
2018-04-02T00:26:47.724Z,49.77
2018-04-02T00:29:15.885Z,48.90
2018-04-02T00:31:44.777Z,48.70
2018-04-02T00:34:12.914Z,49.93
2018-04-02T00:36:41.096Z,50.00
2018-04-02T00:41:43.775Z,45.93
2018-04-02T00:44:11.900Z,50.07
2018-04-02T00:46:40.781Z,48.53
2018-04-02T00:49:09.644Z,49.43
2018-04-02T00:51:37.784Z,44.83
2018-04-02T00:54:05.907Z,45.17
2018-04-02T00:56:34.027Z,47.80
2018-04-02T00:59:02.357Z,45.37
2018-04-02T01:01:31.250Z,46.57
2018-04-02T01:04:00.120Z,43.47
2018-04-02T01:06:28.268Z,46.20
2018-04-02T01:08:56.400Z,46.17
2018-04-02T01:11:25.450Z,43.70
2018-04-02T01:13:53.765Z,43.97
2018-04-02T01:16:21.915Z,43.43
2018-04-02T01:18:50.089Z,44.23
2018-04-02T01:21:18.417Z,41.60
2018-04-02T01:23:47.418Z,44.13
2018-04-02T01:26:15.634Z,42.47
2018-04-02T01:28:43.778Z,42.23
2018-04-02T01:31:11.903Z,44.73
2018-04-02T01:33:40.787Z,43.47
2018-04-02T01:36:09.689Z,40.10
2018-04-02T01:38:38.583Z,41.13
2018-04-02T01:41:07.466Z,40.63
2018-04-02T01:43:36.365Z,41.97
2018-04-02T01:46:05.091Z,39.80
2018-04-02T01:48:33.207Z,41.53
2018-04-02T01:51:02.102Z,38.63
2018-04-02T01:53:31.073Z,38.63
2018-04-02T01:55:59.190Z,43.43
2018-04-02T01:58:27.350Z,43.13
2018-04-02T02:00:55.632Z,40.50
2018-04-02T02:03:24.547Z,38.87
2018-04-02T02:05:52.741Z,37.53
2018-04-02T02:08:20.854Z,40.83
2018-04-02T02:10:49.831Z,40.77
2018-04-02T02:13:17.970Z,39.73
2018-04-02T02:15:46.172Z,40.10
2018-04-02T02:18:14.292Z,37.80
2018-04-02T02:20:42.441Z,39.73
2018-04-02T02:23:10.558Z,39.23
2018-04-02T02:25:39.194Z,41.23
2018-04-02T02:28:07.474Z,41.73
2018-04-02T02:30:36.408Z,38.60
2018-04-02T02:33:04.532Z,39.57
2018-04-02T02:35:32.698Z,39.33
2018-04-02T02:38:00.813Z,41.33
2018-04-02T02:40:28.924Z,40.87
2018-04-02T02:42:57.154Z,44.00
2018-04-02T02:45:25.274Z,39.30
2018-04-02T02:47:53.403Z,39.80
2018-04-02T02:50:22.282Z,40.17
2018-04-02T02:52:50.420Z,38.87
2018-04-02T02:55:18.535Z,41.23
2018-04-02T02:57:46.675Z,38.60
2018-04-02T03:00:14.948Z,36.90
2018-04-02T03:02:43.177Z,39.70
2018-04-02T03:05:11.357Z,40.23
2018-04-02T03:07:39.946Z,36.27
2018-04-02T03:10:08.158Z,36.50
2018-04-02T03:12:36.515Z,34.37
2018-04-02T03:15:04.668Z,34.33
2018-04-02T03:17:32.828Z,34.63
2018-04-02T03:20:00.935Z,34.03
2018-04-02T03:22:29.070Z,33.27
2018-04-02T03:24:57.185Z,34.73
2018-04-02T03:27:25.330Z,30.40
2018-04-02T03:29:53.460Z,29.37
2018-04-02T03:32:22.342Z,28.10
2018-04-02T03:34:51.257Z,28.60
2018-04-02T03:37:19.386Z,28.53
2018-04-02T03:39:47.543Z,26.93
2018-04-02T03:42:16.612Z,26.07
2018-04-02T03:44:44.731Z,31.13
2018-04-02T03:47:12.848Z,29.37
2018-04-02T03:49:41.174Z,27.43
2018-04-02T03:52:09.340Z,33.07
2018-04-02T03:54:37.459Z,29.20
2018-04-02T03:57:06.429Z,29.57
2018-04-02T03:59:34.557Z,31.27
2018-04-02T04:02:02.720Z,28.57
2018-04-02T04:04:30.868Z,28.73
2018-04-02T04:07:00.188Z,26.87
2018-04-02T04:09:28.323Z,28.57
2018-04-02T04:11:56.462Z,27.53
2018-04-02T04:14:24.585Z,28.07
2018-04-02T04:16:53.900Z,25.87
2018-04-02T04:19:22.773Z,26.17
2018-04-02T04:21:50.881Z,26.67
2018-04-02T04:24:19.000Z,28.57
2018-04-02T04:26:47.145Z,24.73
2018-04-02T04:29:15.252Z,24.30
2018-04-02T04:31:44.142Z,26.63
2018-04-02T04:34:12.277Z,24.63
2018-04-02T04:36:40.473Z,24.17
2018-04-02T04:39:08.600Z,23.23
2018-04-02T04:41:36.704Z,25.03
2018-04-02T04:44:05.449Z,24.07
2018-04-02T04:46:34.335Z,23.87
2018-04-02T04:49:03.297Z,25.57
2018-04-02T04:51:31.426Z,26.77
2018-04-02T04:53:59.541Z,23.97
2018-04-02T04:56:27.907Z,25.30
2018-04-02T04:58:56.024Z,22.97
2018-04-02T05:01:24.142Z,21.40
2018-04-02T05:03:52.423Z,23.07
2018-04-02T05:06:20.816Z,22.97
2018-04-02T05:08:48.969Z,22.80
2018-04-02T05:11:17.390Z,24.93
2018-04-02T05:13:45.485Z,23.47
2018-04-02T05:16:13.636Z,22.60
2018-04-02T05:18:42.680Z,23.13
2018-04-02T05:21:10.784Z,25.10
2018-04-02T05:23:38.966Z,22.90
2018-04-02T05:26:07.094Z,24.73
2018-04-02T05:28:35.212Z,26.03
2018-04-02T05:31:03.343Z,24.37
2018-04-02T05:33:31.677Z,20.30
2018-04-02T05:35:59.791Z,23.73
2018-04-02T05:38:28.079Z,21.13
2018-04-02T05:40:56.217Z,23.10
2018-04-02T05:43:24.381Z,24.17
2018-04-02T05:45:53.638Z,22.57
2018-04-02T05:48:21.799Z,22.97
2018-04-02T05:50:49.993Z,22.27
2018-04-02T05:53:18.113Z,21.93
2018-04-02T05:55:47.019Z,22.03
2018-04-02T05:58:15.141Z,21.23
2018-04-02T06:00:43.252Z,21.13
2018-04-02T06:03:11.374Z,20.97
2018-04-02T06:05:39.584Z,21.07
2018-04-02T06:08:08.546Z,20.60
2018-04-02T06:10:36.737Z,21.53
2018-04-02T06:13:05.604Z,20.77
2018-04-02T06:15:33.714Z,19.53
2018-04-02T06:18:02.605Z,21.63
2018-04-02T06:20:31.674Z,21.77
2018-04-02T06:22:59.805Z,19.73
2018-04-02T06:25:27.949Z,19.93
2018-04-02T06:27:56.821Z,20.83
2018-04-02T06:30:25.094Z,19.40
2018-04-02T06:32:53.270Z,19.73
2018-04-02T06:35:22.279Z,17.77
2018-04-02T06:37:51.151Z,19.43
2018-04-02T06:40:19.318Z,18.67
2018-04-02T06:42:47.434Z,19.47
2018-04-02T06:45:16.494Z,17.40
2018-04-02T06:47:44.968Z,17.87
2018-04-02T06:50:13.168Z,17.30
2018-04-02T06:52:42.041Z,18.20
2018-04-02T06:55:10.967Z,19.40
2018-04-02T06:57:39.087Z,19.00
2018-04-02T07:00:07.232Z,18.33
2018-04-02T07:02:35.427Z,17.93
2018-04-02T07:05:03.683Z,16.00
2018-04-02T07:07:31.796Z,16.33
2018-04-02T07:10:00.005Z,15.97
2018-04-02T07:12:28.252Z,16.30
2018-04-02T07:15:01.069Z,16.73
2018-04-02T07:17:29.206Z,15.33
2018-04-02T07:19:58.134Z,15.27
2018-04-02T07:22:26.375Z,15.30
2018-04-02T07:24:54.513Z,14.30
2018-04-02T07:27:22.638Z,14.93
2018-04-02T07:29:50.786Z,14.30
2018-04-02T07:32:19.847Z,14.37
2018-04-02T07:34:47.974Z,13.93
2018-04-02T07:37:17.040Z,13.80
2018-04-02T07:39:45.366Z,14.50
2018-04-02T07:42:13.591Z,15.23
2018-04-02T08:02:09.125Z,14.53
2018-04-02T08:04:39.690Z,16.73
2018-04-02T08:07:09.496Z,12.67
2018-04-02T08:09:38.380Z,12.27
2018-04-02T08:12:07.284Z,11.70
2018-04-02T08:14:35.412Z,11.20
2018-04-02T08:17:03.538Z,12.47
2018-04-02T08:19:31.881Z,11.60
2018-04-02T08:22:00.801Z,9.67
2018-04-02T08:24:28.940Z,11.00
2018-04-02T08:26:57.091Z,11.20
2018-04-02T08:29:25.252Z,10.73
2018-04-02T08:31:53.541Z,13.20
2018-04-02T08:34:21.885Z,99.70
2018-04-02T08:36:50.159Z,14.93
2018-04-02T08:39:18.414Z,10.03
2018-04-02T08:41:46.589Z,10.57
2018-04-02T08:44:14.754Z,8.83
2018-04-02T08:46:43.813Z,9.47
2018-04-02T08:49:11.937Z,12.57
2018-04-02T08:51:40.052Z,9.27
2018-04-02T08:54:08.262Z,8.87
2018-04-02T08:56:37.149Z,10.33
2018-04-02T08:59:06.233Z,11.60
2018-04-02T09:01:34.396Z,8.90
2018-04-02T09:04:02.782Z,14.53
2018-04-02T09:06:30.918Z,13.40
2018-04-02T09:08:59.144Z,9.60
2018-04-02T09:11:27.279Z,9.60
2018-04-02T09:13:55.414Z,6.90
2018-04-02T09:16:23.602Z,9.07
2018-04-02T09:18:51.832Z,7.90
2018-04-02T09:21:20.728Z,9.17
2018-04-02T09:23:50.366Z,9.67
2018-04-02T09:26:18.677Z,6.20
2018-04-02T09:28:46.804Z,12.17
2018-04-02T09:31:14.951Z,7.37
2018-04-02T09:33:43.221Z,7.80
2018-04-02T09:36:11.380Z,7.70
2018-04-02T09:38:40.298Z,6.17
2018-04-02T09:41:09.377Z,6.13
2018-04-02T09:43:37.561Z,5.60
2018-04-02T09:46:05.674Z,7.93
2018-04-02T09:48:33.791Z,4.70
2018-04-02T09:51:01.956Z,6.53
2018-04-02T09:53:30.070Z,6.33
2018-04-02T09:55:58.956Z,6.93
2018-04-02T09:58:27.858Z,5.17
2018-04-02T10:01:00.807Z,5.73
2018-04-02T10:03:34.556Z,5.40
2018-04-02T10:06:02.657Z,6.67
2018-04-02T10:08:30.818Z,4.03
2018-04-02T10:10:59.047Z,6.43
2018-04-02T10:13:27.174Z,6.40
2018-04-02T10:15:55.322Z,4.30
2018-04-02T10:18:23.455Z,5.97
2018-04-02T10:20:52.297Z,6.65
2018-04-02T10:23:20.430Z,3.97
2018-04-02T10:25:48.549Z,6.07
2018-04-02T10:28:16.808Z,6.97
2018-04-02T10:30:45.145Z,4.35
2018-04-02T10:33:13.258Z,6.90
2018-04-02T10:35:41.620Z,4.10
2018-04-02T10:38:11.147Z,7.93
2018-04-02T10:40:39.342Z,5.78
2018-04-02T10:43:07.458Z,5.30
2018-04-02T10:45:37.129Z,6.87
2018-04-02T10:48:05.290Z,7.20
2018-04-02T10:50:33.394Z,5.87
2018-04-02T10:53:02.595Z,6.00
2018-04-02T10:55:31.535Z,5.83
2018-04-02T10:57:59.742Z,6.03
2018-04-02T11:00:27.870Z,4.03
2018-04-02T11:02:56.775Z,5.30
2018-04-02T11:05:24.909Z,6.23
2018-04-02T11:07:53.040Z,6.20
2018-04-02T11:10:21.163Z,4.90
2018-04-02T11:12:49.404Z,5.70
2018-04-02T11:15:18.434Z,4.33
2018-04-02T11:17:46.751Z,4.47
2018-04-02T11:20:14.906Z,4.87
2018-04-02T11:22:43.090Z,4.57
2018-04-02T11:25:11.547Z,7.90
2018-04-02T11:27:39.665Z,5.70
2018-04-02T11:30:07.806Z,6.33
2018-04-02T11:32:36.103Z,4.97
2018-04-02T11:35:04.400Z,5.33
2018-04-02T11:37:32.521Z,5.63
2018-04-02T11:40:01.421Z,4.50
2018-04-02T11:42:29.568Z,5.53
2018-04-02T11:44:57.673Z,5.43
2018-04-02T11:47:25.926Z,5.00
2018-04-02T11:49:54.829Z,4.83
2018-04-02T11:52:22.975Z,3.60
2018-04-02T11:54:51.088Z,5.10
2018-04-02T11:57:19.204Z,3.97
2018-04-02T11:59:47.337Z,4.27
2018-04-02T12:02:15.566Z,8.23
2018-04-02T12:04:43.865Z,6.70
2018-04-02T12:07:11.974Z,6.23
2018-04-02T12:09:40.097Z,6.03
2018-04-02T12:12:08.309Z,5.67
2018-04-02T12:14:36.432Z,7.33
2018-04-02T12:17:04.730Z,6.10
2018-04-02T12:19:33.623Z,5.57
2018-04-02T12:22:01.750Z,4.03
2018-04-02T12:24:29.884Z,4.20
2018-04-02T12:26:58.056Z,6.33
2018-04-02T12:29:26.755Z,7.73
2018-04-02T12:31:55.740Z,5.37
2018-04-02T12:34:24.008Z,6.33
2018-04-02T12:36:52.902Z,3.80
2018-04-02T12:39:21.736Z,6.27
2018-04-02T12:41:49.952Z,5.80
2018-04-02T12:44:18.396Z,4.87
2018-04-02T12:46:46.732Z,5.97
2018-04-02T12:49:14.853Z,4.90
2018-04-02T12:51:44.578Z,3.07
2018-04-02T12:54:12.699Z,6.10
2018-04-02T12:56:40.839Z,4.80
2018-04-02T12:59:09.020Z,4.07
2018-04-02T13:01:38.042Z,7.13
2018-04-02T13:04:06.979Z,6.77
2018-04-02T13:06:35.114Z,3.47
2018-04-02T13:09:04.229Z,4.00
2018-04-02T13:11:32.365Z,3.40
2018-04-02T13:14:00.481Z,3.37
2018-04-02T13:16:28.625Z,2.63
2018-04-02T13:18:56.749Z,4.10
2018-04-02T13:21:25.806Z,4.73
2018-04-02T13:23:53.954Z,3.90
2018-04-02T13:26:22.077Z,5.60
2018-04-02T13:28:50.208Z,4.17
2018-04-02T13:31:18.430Z,5.57
2018-04-02T13:33:46.554Z,5.50
2018-04-02T13:36:14.676Z,3.53
2018-04-02T13:38:42.800Z,5.17
2018-04-02T13:41:10.963Z,4.27
2018-04-02T13:43:39.416Z,5.20
2018-04-02T13:46:08.499Z,3.60
2018-04-02T13:48:36.620Z,3.10
2018-04-02T13:51:04.957Z,3.73
2018-04-02T13:53:33.100Z,4.53
2018-04-02T13:56:01.401Z,3.77
2018-04-02T13:58:30.289Z,3.03
2018-04-02T14:00:58.563Z,3.67
2018-04-02T14:03:26.707Z,7.40
2018-04-02T14:05:54.945Z,4.70
2018-04-02T14:08:23.821Z,3.43
2018-04-02T14:10:52.789Z,3.70
2018-04-02T14:13:20.869Z,3.53
2018-04-02T14:15:49.012Z,3.50
2018-04-02T14:18:17.207Z,3.40
2018-04-02T14:20:45.333Z,4.30
2018-04-02T14:23:13.492Z,2.60
2018-04-02T14:25:41.660Z,3.57
2018-04-02T14:28:10.662Z,2.80
2018-04-02T14:30:38.771Z,3.85
2018-04-02T14:33:07.114Z,3.53
2018-04-02T14:35:35.329Z,3.70
2018-04-02T14:38:03.872Z,4.03
2018-04-02T14:40:31.978Z,3.57
2018-04-02T14:43:04.354Z,3.90
2018-04-02T14:45:32.507Z,5.57
2018-04-02T14:48:01.446Z,3.17
2018-04-02T14:50:29.755Z,3.53
2018-04-02T14:52:58.776Z,5.20
2018-04-02T14:55:27.002Z,4.17
2018-04-02T14:57:55.341Z,4.23
2018-04-02T15:00:23.471Z,3.80
2018-04-02T15:02:51.591Z,3.60
2018-04-02T15:05:19.726Z,5.17
2018-04-02T15:07:47.835Z,4.13
2018-04-02T15:10:15.962Z,4.70
2018-04-02T15:12:44.172Z,4.00
2018-04-02T15:15:12.461Z,3.20
2018-04-02T15:17:40.576Z,2.97
2018-04-02T15:20:08.791Z,3.40
2018-04-02T15:22:36.910Z,4.00
2018-04-02T15:25:05.059Z,3.23
2018-04-02T15:27:33.474Z,2.77
2018-04-02T15:30:02.514Z,3.57
2018-04-02T15:32:31.279Z,4.10
2018-04-02T15:34:59.385Z,3.83
2018-04-02T15:37:27.510Z,4.50
2018-04-02T15:39:55.626Z,4.80
2018-04-02T15:42:23.754Z,3.77
2018-04-02T15:44:52.142Z,7.03
2018-04-02T15:47:20.422Z,6.00
2018-04-02T15:49:48.546Z,3.70
2018-04-02T15:52:16.665Z,5.43
2018-04-02T15:54:44.791Z,5.90
2018-04-02T15:57:13.012Z,5.23
2018-04-02T15:59:41.229Z,4.70
2018-04-02T16:02:09.383Z,5.90
2018-04-02T16:04:37.501Z,4.80
2018-04-02T16:07:05.764Z,4.90
2018-04-02T16:09:33.900Z,4.40
2018-04-02T16:12:02.026Z,4.50
2018-04-02T16:14:30.135Z,4.63
2018-04-02T16:16:58.282Z,3.20
2018-04-02T16:19:27.283Z,6.57
2018-04-02T16:21:55.410Z,3.83
2018-04-02T16:24:23.613Z,4.73
2018-04-02T16:26:52.500Z,4.67
2018-04-02T16:29:20.619Z,3.67
2018-04-02T16:31:48.862Z,5.97
2018-04-02T16:34:17.762Z,4.27
2018-04-02T16:36:45.876Z,2.60
2018-04-02T16:39:13.976Z,2.77
2018-04-02T16:41:42.112Z,3.83
2018-04-02T16:44:10.228Z,2.90
2018-04-02T16:46:39.317Z,4.57
2018-04-02T16:49:07.636Z,4.50
2018-04-02T16:51:35.733Z,4.90
2018-04-02T16:54:03.848Z,5.10
2018-04-02T16:56:31.979Z,5.03
2018-04-02T16:59:00.140Z,4.67
2018-04-02T17:01:28.734Z,3.43
2018-04-02T17:03:56.938Z,5.03
2018-04-02T17:06:25.117Z,3.17
2018-04-02T17:08:53.258Z,4.80
2018-04-02T17:11:21.366Z,5.20
2018-04-02T17:13:50.257Z,5.67
2018-04-02T17:16:18.372Z,7.20
2018-04-02T17:18:46.513Z,6.03
2018-04-02T17:21:15.398Z,6.90
2018-04-02T17:23:44.284Z,8.67
2018-04-02T17:26:12.480Z,11.33
2018-04-02T17:28:41.341Z,5.83
2018-04-02T17:31:09.614Z,7.00
2018-04-02T17:33:37.774Z,5.60
2018-04-02T17:36:05.894Z,5.77
2018-04-02T17:38:34.799Z,6.23
2018-04-02T17:41:02.934Z,8.70
2018-04-02T17:43:31.064Z,3.90
2018-04-02T17:45:59.195Z,4.00
2018-04-02T17:48:27.313Z,4.77
2018-04-02T17:50:55.445Z,7.27
2018-04-02T17:53:24.329Z,6.77
2018-04-02T17:55:52.480Z,6.83
2018-04-02T17:58:20.583Z,5.00
2018-04-02T18:00:48.688Z,6.67
2018-04-02T18:03:16.822Z,7.00
2018-04-02T18:05:44.943Z,4.90
2018-04-02T18:08:13.056Z,6.83
2018-04-02T18:10:41.949Z,5.83
2018-04-02T18:13:10.059Z,7.57
2018-04-02T18:15:38.166Z,6.03
2018-04-02T18:18:06.278Z,5.77
2018-04-02T18:20:35.270Z,4.50
2018-04-02T18:23:04.158Z,6.17
2018-04-02T18:25:32.745Z,7.70
2018-04-02T18:28:01.679Z,6.70
2018-04-02T18:30:29.769Z,4.53
2018-04-02T18:32:57.929Z,5.90
2018-04-02T18:35:26.090Z,5.10
2018-04-02T18:37:54.230Z,6.60
2018-04-02T18:40:23.129Z,6.20
2018-04-02T18:42:51.368Z,6.17
2018-04-02T18:45:19.527Z,6.57
2018-04-02T18:47:47.642Z,6.67
2018-04-02T18:50:16.641Z,6.80
2018-04-02T18:52:44.778Z,7.27
2018-04-02T18:55:12.921Z,6.00
2018-04-02T18:57:41.151Z,6.63
2018-04-02T19:00:10.954Z,7.73
2018-04-02T19:02:40.040Z,6.73
2018-04-02T19:05:08.143Z,6.77
2018-04-02T19:07:37.199Z,6.23
2018-04-02T19:10:05.366Z,4.23
2018-04-02T19:12:33.572Z,4.40
2018-04-02T19:15:02.471Z,4.33
2018-04-02T19:17:31.364Z,3.80
2018-04-02T19:19:59.487Z,4.37
2018-04-02T19:22:27.698Z,3.40
2018-04-02T19:24:56.610Z,3.40
2018-04-02T19:27:24.719Z,3.80
2018-04-02T19:29:52.842Z,3.70
2018-04-02T19:32:21.750Z,4.03
2018-04-02T19:34:49.866Z,3.63
2018-04-02T19:37:17.980Z,3.57
2018-04-02T19:39:46.159Z,5.50
2018-04-02T19:42:14.266Z,3.23
2018-04-02T19:44:42.377Z,3.50
2018-04-02T19:47:11.338Z,3.30
2018-04-02T19:49:39.561Z,2.97
2018-04-02T19:52:08.489Z,3.63
2018-04-02T19:54:36.835Z,3.40
2018-04-02T19:57:05.731Z,3.67
2018-04-02T19:59:34.016Z,3.83
2018-04-02T20:02:02.245Z,8.17
2018-04-02T20:04:30.380Z,8.57
2018-04-02T20:06:58.610Z,3.23
2018-04-02T20:09:27.505Z,3.27
2018-04-02T20:11:56.441Z,3.83
2018-04-02T20:14:24.733Z,4.20
2018-04-02T20:16:53.042Z,4.30
2018-04-02T20:19:22.745Z,3.90
2018-04-02T20:21:50.899Z,3.77
2018-04-02T20:24:19.032Z,3.70
2018-04-02T20:26:47.158Z,5.03
2018-04-02T20:29:15.294Z,3.40
2018-04-02T20:31:43.418Z,3.77
2018-04-02T20:34:11.653Z,4.07
2018-04-02T20:36:40.030Z,3.73
2018-04-02T20:39:08.285Z,4.00
2018-04-02T20:41:36.571Z,3.90
2018-04-02T20:44:04.814Z,4.83
2018-04-02T20:46:33.836Z,4.40
2018-04-02T20:49:02.317Z,4.33
2018-04-02T20:51:30.422Z,4.53
2018-04-02T20:53:58.580Z,5.83
2018-04-02T20:56:26.721Z,4.33
2018-04-02T20:58:54.833Z,5.27
2018-04-02T21:01:23.055Z,5.00
2018-04-02T21:03:51.943Z,4.70
2018-04-02T21:06:20.969Z,5.22
2018-04-02T21:08:49.114Z,5.17
2018-04-02T21:11:17.341Z,5.97
2018-04-02T21:13:45.686Z,5.53
2018-04-02T21:16:13.815Z,5.13
2018-04-02T21:18:42.206Z,6.17
2018-04-02T21:21:11.140Z,5.67
2018-04-02T21:23:39.278Z,5.70
2018-04-02T21:26:07.398Z,5.43
2018-04-02T21:28:35.554Z,5.60
2018-04-02T21:31:03.636Z,5.67
2018-04-02T21:33:31.765Z,7.23
2018-04-02T21:36:00.661Z,5.47
2018-04-02T21:38:30.274Z,5.93
2018-04-02T21:40:59.138Z,5.97
2018-04-02T21:43:28.755Z,6.47
2018-04-02T21:45:57.810Z,8.37
2018-04-02T21:48:25.923Z,6.70
2018-04-02T21:50:54.157Z,6.53
2018-04-02T21:53:22.292Z,6.67
2018-04-02T21:55:51.175Z,7.43
2018-04-02T21:58:20.049Z,7.30
2018-04-02T22:00:49.058Z,6.67
2018-04-02T22:03:17.166Z,7.20
2018-04-02T22:05:45.276Z,7.03
2018-04-02T22:08:13.413Z,7.53
2018-04-02T22:10:41.546Z,6.97
2018-04-02T22:13:10.447Z,7.30
2018-04-02T22:15:39.330Z,7.10
2018-04-02T22:18:08.198Z,8.03
2018-04-02T22:20:37.088Z,7.53
2018-04-02T22:23:05.215Z,8.33
2018-04-02T22:25:33.506Z,8.80
2018-04-02T22:28:01.792Z,9.07
2018-04-02T22:30:30.116Z,10.77
2018-04-02T22:32:58.985Z,8.70
2018-04-02T22:35:27.112Z,9.47
2018-04-02T22:37:55.235Z,9.97
2018-04-02T22:40:24.125Z,10.27
2018-04-02T22:42:52.855Z,10.23
2018-04-02T22:45:20.985Z,10.73
2018-04-02T22:47:49.866Z,12.37
2018-04-02T22:50:18.788Z,10.60
2018-04-02T22:52:46.921Z,11.50
2018-04-02T22:55:16.957Z,10.67
2018-04-02T22:57:45.701Z,11.20
2018-04-02T23:00:13.839Z,10.47
2018-04-02T23:02:41.978Z,9.80
2018-04-02T23:05:11.618Z,13.73
2018-04-02T23:07:40.706Z,9.67
2018-04-02T23:10:08.957Z,10.30
2018-04-02T23:12:37.073Z,10.00
2018-04-02T23:15:05.279Z,10.60
2018-04-02T23:17:33.569Z,10.43
2018-04-02T23:20:01.845Z,10.73
2018-04-02T23:22:41.794Z,10.23
2018-04-02T23:25:10.029Z,10.80
2018-04-02T23:27:38.192Z,10.40
2018-04-02T23:30:07.186Z,10.63
2018-04-02T23:32:35.378Z,10.33
2018-04-02T23:35:03.488Z,10.17
2018-04-02T23:37:31.616Z,13.13
2018-04-02T23:39:59.733Z,9.73
2018-04-02T23:42:27.939Z,9.97
2018-04-02T23:44:56.837Z,9.87
2018-04-02T23:47:26.001Z,9.30
2018-04-02T23:49:54.125Z,10.03
2018-04-02T23:52:22.257Z,8.70
2018-04-02T23:54:51.133Z,8.30
2018-04-02T23:57:20.768Z,8.63
2018-04-02T23:59:49.677Z,8.97
